Time;durP1;ratioP1;P1;durP2;ratioP2;P2;SDS_P1;SDS_P2;PMS_P1;PMS_P2;Temp;Humidity;BMP_temperature;BMP_pressure;BME280_temperature;BME280_humidity;BME280_pressure;Samples;Min_cycle;Max_cycle;Signal;HPM_P1;HPM_P2
2023/07/12 00:01:28;;;;;;;9.60;6.15;;;21.90;1.00;;;;;;5093052;28;20040;-65
2023/07/12 00:03:54;;;;;;;12.35;6.20;;;21.80;1.00;;;;;;5093461;28;20363;-66
2023/07/12 00:06:27;;;;;;;10.15;6.22;;;21.80;1.00;;;;;;5093296;28;20050;-65
2023/07/12 00:08:52;;;;;;;12.00;6.57;;;21.80;1.00;;;;;;5093495;28;20115;-66
2023/07/12 00:11:20;;;;;;;12.65;6.22;;;21.80;1.00;;;;;;5093522;28;20063;-66
2023/07/12 00:13:46;;;;;;;11.55;6.28;;;21.80;1.00;;;;;;5093432;28;20126;-66
2023/07/12 00:16:20;;;;;;;17.85;6.28;;;21.90;1.00;;;;;;5093236;28;20513;-65
2023/07/12 00:18:45;;;;;;;11.00;6.07;;;21.90;1.00;;;;;;5093666;28;20039;-65
2023/07/12 00:21:12;;;;;;;11.27;7.13;;;21.80;1.00;;;;;;5093312;28;20032;-66
2023/07/12 00:23:38;;;;;;;9.15;7.03;;;21.60;59.70;;;;;;5093275;28;20474;-66
2023/07/12 00:26:32;;;;;;;8.77;6.70;;;21.20;93.80;;;;;;5093248;28;20024;-66
2023/07/12 00:28:59;;;;;;;;;;;20.90;99.90;;;;;;5093465;28;20028;-66
2023/07/12 00:31:25;;;;;;;13.40;6.72;;;20.60;99.90;;;;;;5093163;28;19911;-67
2023/07/12 00:33:51;;;;;;;14.93;7.00;;;20.40;99.90;;;;;;5092871;28;20040;-66
2023/07/12 00:36:24;;;;;;;18.40;7.55;;;20.20;99.90;;;;;;5093001;28;20073;-66
2023/07/12 00:38:50;;;;;;;;;;;20.20;99.90;;;;;;5093311;28;20051;-66
2023/07/12 00:41:42;;;;;;;10.38;7.07;;;20.00;99.90;;;;;;5093039;28;19908;-65
2023/07/12 00:44:13;;;;;;;14.00;7.45;;;20.00;99.90;;;;;;5092809;28;20113;-66
2023/07/12 00:46:46;;;;;;;13.98;7.05;;;19.90;99.90;;;;;;5093002;28;20051;-65
2023/07/12 00:49:12;;;;;;;12.48;7.43;;;19.90;99.90;;;;;;5095748;28;20405;-66
2023/07/12 00:52:06;;;;;;;14.60;7.70;;;19.80;99.90;;;;;;5097016;28;20020;-65
2023/07/12 00:54:56;;;;;;;11.75;7.85;;;19.80;99.90;;;;;;5096504;28;20067;-66
2023/07/12 00:57:23;;;;;;;13.48;6.90;;;19.80;99.90;;;;;;5096495;28;20035;-65
2023/07/12 00:59:52;;;;;;;11.52;7.20;;;19.80;99.90;;;;;;5096672;28;20477;-66
2023/07/12 01:02:22;;;;;;;13.00;6.90;;;19.80;99.90;;;;;;5096264;28;20132;-65
2023/07/12 01:04:50;;;;;;;10.60;6.70;;;19.80;99.90;;;;;;5096710;28;20028;-65
2023/07/12 01:07:18;;;;;;;15.57;7.75;;;19.80;99.90;;;;;;5096650;28;20055;-66
2023/07/12 01:09:43;;;;;;;12.43;8.15;;;19.70;99.90;;;;;;5096733;28;20420;-66
2023/07/12 01:12:09;;;;;;;12.25;7.57;;;19.80;99.90;;;;;;5096692;28;20032;-65
2023/07/12 01:14:35;;;;;;;11.30;7.22;;;19.70;99.90;;;;;;5096434;28;20477;-65
2023/07/12 01:17:05;;;;;;;11.50;7.60;;;19.70;99.90;;;;;;5096171;28;20111;-66
2023/07/12 01:19:32;;;;;;;15.10;7.03;;;19.80;99.90;;;;;;5096210;28;20038;-66
2023/07/12 01:21:58;;;;;;;7.32;5.13;;;19.70;99.90;;;;;;5096126;28;20051;-65
2023/07/12 01:24:25;;;;;;;8.90;5.60;;;19.80;99.90;;;;;;5096086;28;20059;-66
2023/07/12 01:26:57;;;;;;;11.10;4.88;;;19.80;99.90;;;;;;5094742;28;20016;-66
2023/07/12 01:29:23;;;;;;;10.35;4.97;;;19.80;99.90;;;;;;5096034;28;20040;-66
2023/07/12 01:31:49;;;;;;;6.47;4.32;;;19.70;99.90;;;;;;5095954;28;20481;-65
2023/07/12 01:34:16;;;;;;;7.70;3.97;;;19.70;99.90;;;;;;5096157;28;20157;-65
2023/07/12 01:36:42;;;;;;;7.88;3.90;;;19.70;99.90;;;;;;5096127;28;20413;-65
2023/07/12 01:39:08;;;;;;;8.77;3.53;;;19.80;99.90;;;;;;5095898;28;20030;-65
2023/07/12 01:41:34;;;;;;;6.75;3.47;;;19.80;99.90;;;;;;5095823;28;20114;-66
2023/07/12 01:44:00;;;;;;;7.45;3.40;;;19.80;99.90;;;;;;5095893;28;20019;-65
2023/07/12 01:46:26;;;;;;;8.80;3.60;;;19.80;99.90;;;;;;5095865;28;20478;-65
2023/07/12 01:48:52;;;;;;;11.32;4.70;;;19.80;99.90;;;;;;5095811;28;20111;-66
2023/07/12 01:51:19;;;;;;;7.65;4.20;;;19.80;99.90;;;;;;5096082;28;20056;-65
2023/07/12 01:53:45;;;;;;;9.45;4.07;;;19.80;99.90;;;;;;5095729;28;20028;-66
2023/07/12 01:56:12;;;;;;;7.72;4.55;;;19.90;99.90;;;;;;5095750;28;20397;-66
2023/07/12 01:58:37;;;;;;;9.30;4.38;;;19.90;99.90;;;;;;5095335;28;20536;-66
2023/07/12 02:01:03;;;;;;;12.27;4.25;;;19.90;99.90;;;;;;5095283;28;20071;-65
2023/07/12 02:03:29;;;;;;;7.03;3.80;;;19.90;99.90;;;;;;5095303;28;20020;-66
2023/07/12 02:05:56;;;;;;;8.45;4.05;;;19.90;99.90;;;;;;5095671;28;20028;-65
2023/07/12 02:08:22;;;;;;;6.47;4.35;;;20.00;99.90;;;;;;5095472;28;20473;-66
2023/07/12 02:10:48;;;;;;;10.23;4.03;;;19.90;99.90;;;;;;5095811;28;20028;-66
2023/07/12 02:13:14;;;;;;;6.03;3.78;;;20.00;99.90;;;;;;5095568;28;20031;-65
2023/07/12 02:15:40;;;;;;;10.77;3.70;;;20.00;99.90;;;;;;5095202;28;20025;-66
2023/07/12 02:18:06;;;;;;;7.35;4.10;;;20.00;99.90;;;;;;5095178;28;20028;-66
2023/07/12 02:20:32;;;;;;;12.18;4.20;;;19.90;99.90;;;;;;5095026;28;20519;-66
2023/07/12 02:22:58;;;;;;;7.97;4.78;;;20.00;99.90;;;;;;5094741;28;20119;-65
2023/07/12 02:25:24;;;;;;;8.48;5.18;;;19.90;99.90;;;;;;5094751;28;20131;-65
2023/07/12 02:27:50;;;;;;;10.52;5.10;;;20.00;99.90;;;;;;5095043;28;20028;-65
2023/07/12 02:30:19;;;;;;;9.25;4.93;;;19.90;99.90;;;;;;5095051;28;20043;-66
2023/07/12 02:32:46;;;;;;;7.70;5.20;;;19.80;99.90;;;;;;5094976;28;20111;-66
2023/07/12 02:35:12;;;;;;;10.70;5.07;;;19.70;99.90;;;;;;5094824;28;20032;-66
2023/07/12 02:37:38;;;;;;;7.28;3.80;;;19.70;99.90;;;;;;5094952;28;20035;-66
2023/07/12 02:40:05;;;;;;;6.22;3.58;;;19.60;99.90;;;;;;5094814;28;20035;-65
2023/07/12 02:42:31;;;;;;;6.38;3.85;;;19.50;99.90;;;;;;5094528;28;20067;-66
2023/07/12 02:44:57;;;;;;;7.03;4.07;;;19.40;99.90;;;;;;5094708;28;20052;-65
2023/07/12 02:47:22;;;;;;;5.05;3.60;;;19.30;99.90;;;;;;5094630;28;20077;-66
2023/07/12 02:49:48;;;;;;;4.60;3.25;;;19.20;99.90;;;;;;5094659;28;20035;-66
2023/07/12 02:52:14;;;;;;;3.75;3.10;;;19.00;99.90;;;;;;5094692;28;20070;-65
2023/07/12 02:54:39;;;;;;;7.05;3.17;;;18.90;99.90;;;;;;5094626;28;20060;-65
2023/07/12 02:57:08;;;;;;;5.95;3.42;;;19.00;99.90;;;;;;5094605;28;20482;-65
2023/07/12 02:59:34;;;;;;;5.32;2.83;;;19.00;99.90;;;;;;5094337;28;20032;-65
2023/07/12 03:02:00;;;;;;;4.13;2.95;;;18.90;99.90;;;;;;5093989;28;20059;-65
2023/07/12 03:04:26;;;;;;;5.20;3.22;;;18.90;94.20;;;;;;5094396;28;20032;-65
2023/07/12 03:06:51;;;;;;;5.85;3.13;;;18.90;90.70;;;;;;5094221;28;20038;-65
2023/07/12 03:09:17;;;;;;;4.50;2.60;;;18.90;57.50;;;;;;5094318;28;20028;-65
2023/07/12 03:11:45;;;;;;;3.67;2.45;;;18.90;32.00;;;;;;5093797;28;20028;-66
2023/07/12 03:14:11;;;;;;;8.85;2.65;;;18.90;28.40;;;;;;5094314;28;20478;-66
2023/07/12 03:16:37;;;;;;;7.32;2.80;;;18.90;30.80;;;;;;5094126;28;20024;-66
2023/07/12 03:19:02;;;;;;;3.65;2.65;;;18.90;41.70;;;;;;5094022;28;20024;-65
2023/07/12 03:21:28;;;;;;;6.10;3.05;;;18.80;55.60;;;;;;5093663;28;20028;-65
2023/07/12 03:23:53;;;;;;;5.32;2.80;;;18.80;55.00;;;;;;5093972;28;20024;-65
2023/07/12 03:26:19;;;;;;;3.83;2.55;;;18.80;72.10;;;;;;5093794;28;20028;-65
2023/07/12 03:28:44;;;;;;;3.92;2.47;;;18.70;68.00;;;;;;5093868;28;20020;-65
2023/07/12 03:31:12;;;;;;;7.03;2.60;;;18.70;75.90;;;;;;5093989;28;20046;-65
2023/07/12 03:33:39;;;;;;;6.13;2.50;;;18.60;72.80;;;;;;5092616;28;20031;-65
2023/07/12 03:36:05;;;;;;;5.78;2.47;;;18.60;72.50;;;;;;5093798;28;20517;-65
2023/07/12 03:38:31;;;;;;;5.60;2.60;;;18.60;70.20;;;;;;5093354;28;20024;-66
2023/07/12 03:41:03;;;;;;;17.23;9.95;;;18.60;76.40;;;;;;5093656;28;20028;-65
2023/07/12 03:43:29;;;;;;;5.28;3.17;;;18.60;80.00;;;;;;5093455;28;20474;-65
2023/07/12 03:45:55;;;;;;;4.82;2.85;;;18.60;89.80;;;;;;5093453;28;20051;-65
2023/07/12 03:48:23;;;;;;;5.28;2.72;;;18.50;81.80;;;;;;5093249;28;20052;-66
2023/07/12 03:50:50;;;;;;;4.25;3.08;;;18.40;94.20;;;;;;5093601;28;20058;-65
2023/07/12 03:53:16;;;;;;;6.45;2.75;;;18.30;99.90;;;;;;5093354;28;20544;-66
2023/07/12 03:55:43;;;;;;;4.13;2.40;;;18.30;99.90;;;;;;5093486;28;20134;-66
2023/07/12 03:58:12;;;;;;;6.15;2.88;;;18.20;99.90;;;;;;5093315;28;20438;-65
2023/07/12 04:00:40;;;;;;;6.28;2.55;;;18.10;99.90;;;;;;5092890;28;20023;-66
2023/07/12 04:03:06;;;;;;;4.45;2.35;;;18.00;99.90;;;;;;5093110;28;20021;-66
2023/07/12 04:05:36;;;;;;;5.00;2.38;;;18.00;99.90;;;;;;5093405;28;20032;-66
2023/07/12 04:08:02;;;;;;;5.10;2.35;;;17.90;99.90;;;;;;5093073;28;20063;-66
2023/07/12 04:10:28;;;;;;;5.47;2.40;;;17.90;99.90;;;;;;5093264;28;20429;-66
2023/07/12 04:12:53;;;;;;;6.25;2.67;;;17.90;99.90;;;;;;5093440;28;20036;-65
2023/07/12 04:15:19;;;;;;;6.10;2.63;;;17.80;99.90;;;;;;5093421;28;20035;-66
2023/07/12 04:17:44;;;;;;;8.77;2.90;;;17.90;99.90;;;;;;5093201;28;20033;-66
2023/07/12 04:20:10;;;;;;;5.40;2.70;;;17.90;99.90;;;;;;5093259;28;20040;-65
2023/07/12 04:22:36;;;;;;;5.93;2.58;;;17.90;99.90;;;;;;5093179;28;20024;-66
2023/07/12 04:25:02;;;;;;;7.72;2.58;;;17.80;98.40;;;;;;5097020;28;20024;-66
2023/07/12 04:27:28;;;;;;;6.07;2.60;;;17.90;99.90;;;;;;5097203;28;20020;-66
2023/07/12 04:29:53;;;;;;;6.47;2.60;;;17.80;99.90;;;;;;5097301;28;20028;-66
2023/07/12 04:32:19;;;;;;;5.93;2.80;;;17.80;99.90;;;;;;5096981;28;20028;-66
2023/07/12 04:34:46;;;;;;;5.90;2.83;;;17.80;99.90;;;;;;5097313;28;20032;-66
2023/07/12 04:37:12;;;;;;;7.18;2.58;;;17.80;99.90;;;;;;5097136;28;20097;-66
2023/07/12 04:39:37;;;;;;;5.90;2.55;;;17.80;99.90;;;;;;5096937;28;20473;-66
2023/07/12 04:42:03;;;;;;;4.00;1.95;;;17.70;99.90;;;;;;5096805;28;20024;-66
2023/07/12 04:44:28;;;;;;;4.05;2.05;;;17.70;98.30;;;;;;5097081;28;20058;-66
2023/07/12 04:46:55;;;;;;;6.05;2.13;;;17.70;88.50;;;;;;5096884;28;20385;-66
2023/07/12 04:49:20;;;;;;;4.55;2.03;;;17.80;84.80;;;;;;5096990;28;20482;-66
2023/07/12 04:51:46;;;;;;;7.18;2.28;;;17.80;92.60;;;;;;5097036;28;20040;-65
2023/07/12 04:54:11;;;;;;;4.90;2.20;;;17.80;87.20;;;;;;5097026;28;20036;-66
2023/07/12 04:56:37;;;;;;;6.03;2.05;;;17.90;92.00;;;;;;5096865;28;20036;-66
2023/07/12 04:59:02;;;;;;;4.68;2.30;;;17.90;86.10;;;;;;5096744;28;20076;-66
2023/07/12 05:01:29;;;;;;;5.00;1.90;;;17.80;71.90;;;;;;5096269;28;20048;-66
2023/07/12 05:03:54;;;;;;;8.40;2.88;;;17.80;91.30;;;;;;5096333;28;20030;-65
2023/07/12 05:06:20;;;;;;;6.68;2.75;;;17.80;86.70;;;;;;5096599;28;20036;-63
2023/07/12 05:08:46;;;;;;;5.63;2.50;;;17.90;90.70;;;;;;5096224;28;20024;-63
2023/07/12 05:11:11;;;;;;;6.28;2.40;;;17.90;79.20;;;;;;5096328;28;20055;-64
2023/07/12 05:13:37;;;;;;;9.98;2.63;;;18.10;75.90;;;;;;5096517;28;20059;-64
2023/07/12 05:16:03;;;;;;;6.72;2.22;;;18.30;58.30;;;;;;5096354;28;20032;-64
2023/07/12 05:18:28;;;;;;;4.18;2.00;;;18.40;43.90;;;;;;5096326;28;20058;-65
2023/07/12 05:20:54;;;;;;;5.82;2.08;;;18.50;29.30;;;;;;5096324;28;20454;-64
2023/07/12 05:23:20;;;;;;;4.95;2.17;;;18.50;23.60;;;;;;5096330;28;20394;-64
2023/07/12 05:25:54;;;;;;;4.28;1.88;;;18.60;25.00;;;;;;5095944;28;20532;-65
2023/07/12 05:28:20;;;;;;;6.47;2.58;;;18.80;14.10;;;;;;5096270;28;20497;-64
2023/07/12 05:30:46;;;;;;;5.20;2.28;;;19.50;1.00;;;;;;5096022;28;20486;-64
2023/07/12 05:33:12;;;;;;;5.00;2.40;;;20.40;1.00;;;;;;5094412;28;20076;-65
2023/07/12 05:35:38;;;;;;;4.10;1.45;;;20.90;1.00;;;;;;5095545;28;20477;-65
2023/07/12 05:38:04;;;;;;;6.63;2.20;;;21.80;99.90;;;;;;5096213;28;20035;-65
2023/07/12 05:40:30;;;;;;;5.82;2.35;;;22.00;99.90;;;;;;5095925;28;20049;-65
2023/07/12 05:42:56;;;;;;;3.97;1.90;;;22.30;99.90;;;;;;5095725;28;20028;-64
2023/07/12 05:45:23;;;;;;;6.40;2.20;;;21.80;99.90;;;;;;5095506;28;20024;-65
2023/07/12 05:47:49;;;;;;;6.53;2.45;;;21.60;1.00;;;;;;5095664;28;20048;-64
2023/07/12 05:50:17;;;;;;;8.50;2.58;;;21.90;99.90;;;;;;5094655;28;20020;-65
2023/07/12 05:52:43;;;;;;;7.03;2.53;;;22.20;1.00;;;;;;5091852;28;20466;-64
2023/07/12 05:55:10;;;;;;;8.05;1.90;;;21.50;1.00;;;;;;5095243;28;20035;-65
2023/07/12 05:57:36;;;;;;;7.53;2.88;;;21.80;99.90;;;;;;5095304;28;20138;-65
2023/07/12 06:00:04;;;;;;;8.73;2.47;;;22.30;1.00;;;;;;5086757;28;20083;-65
2023/07/12 06:02:29;;;;;;;3.10;1.90;;;21.90;1.00;;;;;;5074277;28;20449;-65
2023/07/12 06:04:55;;;;;;;3.95;1.67;;;21.90;99.90;;;;;;5075002;28;20032;-65
2023/07/12 06:07:20;;;;;;;4.90;1.92;;;21.10;1.00;;;;;;5074814;28;20156;-65
2023/07/12 06:09:46;;;;;;;4.88;1.73;;;20.30;99.90;;;;;;5075121;28;20112;-66
2023/07/12 06:12:12;;;;;;;7.80;1.70;;;19.50;99.90;;;;;;5074913;28;20025;-64
2023/07/12 06:14:37;;;;;;;4.45;1.60;;;19.20;1.00;;;;;;5074225;28;20030;-64
2023/07/12 06:17:05;;;;;;;13.13;3.47;;;19.20;1.00;;;;;;5077507;28;20051;-66
2023/07/12 06:19:30;;;;;;;10.77;6.32;;;19.20;1.00;;;;;;5079655;28;20032;-66
2023/07/12 06:21:56;;;;;;;8.15;2.35;;;19.50;1.00;;;;;;5090059;28;20101;-65
2023/07/12 06:24:21;;;;;;;5.95;4.38;;;19.50;99.90;;;;;;5093959;28;20035;-67
2023/07/12 06:26:47;;;;;;;4.75;3.67;;;19.50;99.90;;;;;;5084425;28;20472;-67
2023/07/12 06:29:12;;;;;;;3.92;3.13;;;19.30;1.00;;;;;;5075824;28;21476;-65
2023/07/12 06:31:38;;;;;;;3.60;2.80;;;19.10;1.00;;;;;;5093407;28;20028;-65
2023/07/12 06:34:04;;;;;;;4.53;2.58;;;19.10;1.00;;;;;;5094197;28;20020;-70
2023/07/12 06:36:33;;;;;;;3.92;2.45;;;19.20;1.00;;;;;;5078962;28;20055;-65
2023/07/12 06:38:59;;;;;;;3.92;2.40;;;19.30;1.00;;;;;;5077981;28;20032;-65
2023/07/12 06:41:24;;;;;;;4.60;2.10;;;19.40;1.00;;;;;;5076060;28;20358;-65
2023/07/12 06:43:50;;;;;;;4.57;2.08;;;19.30;1.00;;;;;;5085691;28;20032;-66
2023/07/12 06:46:16;;;;;;;4.90;2.25;;;19.10;1.00;;;;;;5081663;28;20115;-66
2023/07/12 06:48:42;;;;;;;3.33;2.50;;;19.20;1.00;;;;;;5067589;28;20032;-68
2023/07/12 06:51:08;;;;;;;6.35;2.55;;;19.20;1.00;;;;;;5084420;28;20070;-66
2023/07/12 06:53:33;;;;;;;4.70;3.17;;;19.20;1.00;;;;;;5085586;28;20504;-65
2023/07/12 06:55:59;;;;;;;4.88;3.10;;;19.00;1.00;;;;;;5082891;28;20595;-65
2023/07/12 06:58:25;;;;;;;4.05;2.25;;;18.90;1.00;;;;;;5077068;28;20032;-67
2023/07/12 07:00:50;;;;;;;4.18;2.50;;;19.00;1.00;;;;;;5082516;28;20037;-67
2023/07/12 07:03:17;;;;;;;4.80;3.10;;;18.90;1.00;;;;;;5083693;28;20481;-67
2023/07/12 07:05:45;;;;;;;4.53;3.10;;;18.90;1.00;;;;;;5077083;28;20013;-65
2023/07/12 07:08:13;;;;;;;5.43;3.45;;;18.90;1.00;;;;;;5092694;28;20416;-65
2023/07/12 07:10:38;;;;;;;6.82;4.82;;;18.90;1.00;;;;;;5078000;28;20390;-64
2023/07/12 07:13:04;;;;;;;10.25;5.38;;;18.80;1.00;;;;;;5091404;28;20020;-64
2023/07/12 07:15:29;;;;;;;7.97;5.60;;;19.00;1.00;;;;;;5085847;28;20032;-65
2023/07/12 07:17:55;;;;;;;9.75;6.22;;;19.00;1.00;;;;;;5093339;28;20387;-66
2023/07/12 07:20:21;;;;;;;8.80;6.60;;;19.10;1.00;;;;;;5094825;28;20031;-65
2023/07/12 07:22:46;;;;;;;6.82;5.25;;;19.30;1.00;;;;;;5098275;28;20413;-66
2023/07/12 07:25:12;;;;;;;7.82;4.30;;;19.20;1.00;;;;;;5073602;28;20032;-65
2023/07/12 07:27:38;;;;;;;7.82;3.85;;;19.50;1.00;;;;;;5075786;28;20020;-65
2023/07/12 07:30:04;;;;;;;5.75;4.30;;;19.70;1.00;;;;;;5080541;28;20025;-65
2023/07/12 07:32:30;;;;;;;8.23;4.32;;;20.10;1.00;;;;;;5082359;28;20478;-65
2023/07/12 07:34:55;;;;;;;6.97;4.25;;;19.90;1.00;;;;;;5096016;28;20036;-66
2023/07/12 07:37:21;;;;;;;4.68;3.72;;;20.30;99.90;;;;;;5080289;28;20103;-66
2023/07/12 07:39:46;;;;;;;5.00;3.70;;;20.90;99.90;;;;;;5082098;28;20042;-67
2023/07/12 07:42:12;;;;;;;6.00;4.25;;;21.50;49.00;;;;;;5093209;28;20020;-66
2023/07/12 07:44:37;;;;;;;8.95;5.57;;;21.20;1.00;;;;;;5077907;28;20074;-66
2023/07/12 07:47:03;;;;;;;9.38;5.60;;;20.60;99.90;;;;;;5081930;28;20028;-65
2023/07/12 07:49:29;;;;;;;9.68;6.00;;;20.30;99.90;;;;;;5087737;28;20051;-66
2023/07/12 07:51:54;;;;;;;8.68;7.10;;;20.40;99.90;;;;;;5076834;28;20064;-66
2023/07/12 07:54:20;;;;;;;7.70;6.95;;;20.30;99.90;;;;;;5077496;28;20024;-66
2023/07/12 07:56:48;;;;;;;8.80;6.13;;;20.00;99.90;;;;;;5086156;28;20032;-67
2023/07/12 07:59:15;;;;;;;11.25;6.93;;;20.00;99.90;;;;;;5092563;28;20079;-66
2023/07/12 08:01:40;;;;;;;6.85;5.40;;;21.00;99.90;;;;;;5104662;28;20145;-66
2023/07/12 08:04:07;;;;;;;7.05;4.90;;;21.50;1.00;;;;;;5080305;28;20316;-66
2023/07/12 08:06:33;;;;;;;6.03;3.50;;;22.20;99.90;;;;;;5090543;28;20023;-66
2023/07/12 08:08:59;;;;;;;6.68;3.42;;;22.40;1.00;;;;;;5089964;28;20020;-66
2023/07/12 08:11:24;;;;;;;7.15;2.70;;;22.20;99.90;;;;;;5083059;28;20032;-66
2023/07/12 08:13:50;;;;;;;7.10;3.00;;;21.80;23.80;;;;;;5093449;28;20050;-66
2023/07/12 08:16:15;;;;;;;6.78;2.45;;;21.90;1.00;;;;;;5086124;28;20024;-63
2023/07/12 08:18:41;;;;;;;9.38;2.70;;;22.80;99.90;;;;;;5085987;28;20020;-67
2023/07/12 08:21:07;;;;;;;6.88;2.40;;;22.60;1.00;;;;;;5086351;28;20038;-66
2023/07/12 08:23:32;;;;;;;5.03;2.72;;;22.30;99.90;;;;;;5078031;28;20541;-63
2023/07/12 08:25:58;;;;;;;8.45;3.08;;;22.40;99.90;;;;;;5076805;28;20036;-65
2023/07/12 08:28:24;;;;;;;8.68;3.00;;;22.10;99.90;;;;;;5092439;28;20438;-64
2023/07/12 08:30:49;;;;;;;11.73;3.10;;;22.00;99.90;;;;;;5087142;28;20396;-66
2023/07/12 08:33:15;;;;;;;5.60;2.78;;;21.90;99.90;;;;;;5091094;28;20081;-65
2023/07/12 08:35:41;;;;;;;9.15;3.38;;;21.60;1.00;;;;;;5093944;28;20034;-64
2023/07/12 08:38:07;;;;;;;15.48;3.70;;;21.40;99.90;;;;;;5086120;28;20119;-64
2023/07/12 08:40:37;;;;;;;9.88;4.32;;;21.30;99.90;;;;;;5091213;28;20489;-64
2023/07/12 08:43:11;;;;;;;7.22;3.45;;;20.90;99.90;;;;;;5082336;28;20036;-63
2023/07/12 08:45:36;;;;;;;8.60;3.63;;;21.00;1.00;;;;;;5072632;28;20066;-65
2023/07/12 08:48:10;;;;;;;11.50;3.70;;;21.10;99.90;;;;;;5092085;28;20025;-64
2023/07/12 08:50:40;;;;;;;7.20;3.30;;;21.30;99.90;;;;;;5082107;28;20114;-64
2023/07/12 08:53:10;;;;;;;9.95;3.25;;;21.30;99.90;;;;;;5090367;28;20118;-64
2023/07/12 08:55:37;;;;;;;8.82;3.10;;;21.60;61.30;;;;;;5101820;28;20052;-64
2023/07/12 08:58:17;;;;;;;6.97;2.88;;;22.00;1.00;;;;;;5102759;28;20028;-64
2023/07/12 09:00:44;;;;;;;5.70;2.50;;;21.90;1.00;;;;;;5101517;28;20051;-64
2023/07/12 09:03:09;;;;;;;6.03;2.28;;;21.70;1.00;;;;;;5078013;28;20032;-66
2023/07/12 09:05:35;;;;;;;7.93;2.70;;;21.90;1.00;;;;;;5076486;28;20064;-64
2023/07/12 09:10:46;;;;;;;5.32;2.63;;;21.20;1.00;;;;;;5110812;27;20784;-63
2023/07/12 09:13:13;;;;;;;2.90;2.50;;;21.10;3.30;;;;;;5091710;28;20027;-63
2023/07/12 09:15:48;;;;;;;7.95;2.60;;;20.80;1.00;;;;;;5109341;28;20493;-64
2023/07/12 09:18:33;;;;;;;7.72;2.65;;;20.70;99.90;;;;;;5109182;28;20027;-63
2023/07/12 09:21:00;;;;;;;7.13;2.33;;;21.10;93.20;;;;;;5104653;28;20434;-63
2023/07/12 09:23:43;;;;;;;5.25;2.13;;;20.90;1.00;;;;;;5108664;28;20137;-63
2023/07/12 09:26:12;;;;;;;3.97;2.35;;;21.50;1.00;;;;;;5099709;28;20055;-64
2023/07/12 09:28:39;;;;;;;6.95;3.00;;;22.30;99.90;;;;;;5109018;28;20384;-64
2023/07/12 09:31:15;;;;;;;5.57;2.58;;;22.30;99.90;;;;;;5110517;28;20110;-63
2023/07/12 09:33:47;;;;;;;11.95;3.63;;;23.20;99.90;;;;;;5109078;28;20019;-67
2023/07/12 09:36:17;;;;;;;6.47;2.40;;;23.60;99.90;;;;;;5109656;28;20028;-63
2023/07/12 09:38:42;;;;;;;6.85;2.72;;;23.70;99.90;;;;;;5105821;28;20039;-64
2023/07/12 09:41:10;;;;;;;4.28;2.90;;;23.30;99.90;;;;;;5108870;28;20031;-63
2023/07/12 09:43:39;;;;;;;4.90;2.97;;;23.50;10.50;;;;;;5110265;28;20085;-64
2023/07/12 09:46:19;;;;;;;5.43;2.60;;;24.20;1.00;;;;;;5108670;28;20027;-63
2023/07/12 09:48:53;;;;;;;4.47;2.45;;;23.70;1.00;;;;;;5100195;28;20355;-63
2023/07/12 09:51:58;;;;;;;7.72;2.55;;;23.50;1.00;;;;;;5105266;28;20096;-64
2023/07/12 09:54:43;;;;;;;8.48;3.17;;;22.70;1.00;;;;;;5104100;28;20397;-66
2023/07/12 09:57:16;;;;;;;6.60;2.67;;;22.80;7.60;;;;;;5104725;28;20055;-65
2023/07/12 10:00:06;;;;;;;8.20;2.90;;;22.40;7.70;;;;;;5109419;28;20114;-66
2023/07/12 10:02:44;;;;;;;6.90;2.90;;;22.40;1.30;;;;;;5109667;28;20285;-63
2023/07/12 10:05:15;;;;;;;4.95;2.75;;;21.80;18.60;;;;;;5110245;28;20039;-62
2023/07/12 10:08:05;;;;;;;8.32;2.70;;;22.30;62.50;;;;;;5093150;28;20548;-63
2023/07/12 10:10:38;;;;;;;5.47;2.50;;;22.40;18.00;;;;;;5108234;28;20056;-63
2023/07/12 10:13:31;;;;;;;9.73;3.08;;;22.30;66.20;;;;;;5109807;28;20054;-64
2023/07/12 10:15:59;;;;;;;6.35;2.90;;;21.90;63.50;;;;;;5107270;28;20059;-64
2023/07/12 10:18:30;;;;;;;6.60;2.72;;;21.90;99.90;;;;;;5108615;28;20039;-64
2023/07/12 10:20:56;;;;;;;6.18;2.40;;;22.80;56.70;;;;;;5102408;28;20024;-64
2023/07/12 10:23:37;;;;;;;6.38;2.20;;;23.50;1.00;;;;;;5090445;28;20032;-64
2023/07/12 10:26:05;;;;;;;4.95;2.10;;;24.40;1.00;;;;;;5094713;28;20110;-63
2023/07/12 10:28:58;;;;;;;3.58;1.90;;;24.70;1.00;;;;;;5093918;28;20036;-64
2023/07/12 10:34:31;;;;;;;6.90;2.70;;;25.60;99.90;;;;;;5109808;27;20887;-65
2023/07/12 10:37:01;;;;;;;6.55;3.03;;;24.10;99.90;;;;;;5108341;28;20252;-64
2023/07/12 10:39:27;;;;;;;5.85;2.42;;;24.30;99.90;;;;;;5089768;28;20131;-64
2023/07/12 10:41:59;;;;;;;6.80;3.10;;;25.10;99.90;;;;;;5101262;28;20028;-64
2023/07/12 10:44:32;;;;;;;6.60;3.00;;;25.50;99.90;;;;;;5099762;28;20036;-63
2023/07/12 10:47:01;;;;;;;8.07;3.40;;;25.30;99.90;;;;;;5101059;28;20044;-63
2023/07/12 10:49:53;;;;;;;6.97;3.05;;;25.30;99.90;;;;;;5096763;28;20782;-63
2023/07/12 10:52:27;;;;;;;7.88;3.70;;;25.30;99.90;;;;;;5087247;28;20439;-67
2023/07/12 10:55:18;;;;;;;6.63;3.78;;;24.90;99.90;;;;;;5104271;28;20063;-64
2023/07/12 10:57:48;;;;;;;8.05;2.92;;;25.30;99.90;;;;;;5089966;28;20027;-66
2023/07/12 11:06:21;;;;;;;7.07;2.28;;;24.60;99.90;;;;;;5079348;28;20352;-65
2023/07/12 11:09:09;;;;;;;5.22;2.53;;;25.10;99.90;;;;;;5067008;28;20112;-64
2023/07/12 11:12:04;;;;;;;6.10;2.70;;;24.50;99.90;;;;;;5068481;28;20033;-64
2023/07/12 11:14:48;;;;;;;4.72;2.35;;;24.70;99.90;;;;;;5067051;28;20039;-65
2023/07/12 11:17:20;;;;;;;6.03;2.95;;;25.00;99.90;;;;;;5064069;28;20028;-64
2023/07/12 11:19:49;;;;;;;7.07;2.42;;;24.60;99.90;;;;;;5062924;28;20112;-64
2023/07/12 11:22:43;;;;;;;8.00;2.30;;;25.10;99.90;;;;;;5067767;28;20082;-64
2023/07/12 11:25:31;;;;;;;7.55;2.75;;;24.50;99.90;;;;;;5058293;28;20432;-64
2023/07/12 11:28:00;;;;;;;9.10;2.72;;;24.80;99.90;;;;;;5070720;28;20078;-63
2023/07/12 11:35:53;;;;;;;8.40;2.60;;;25.20;99.90;;;;;;5105861;27;20384;-65
2023/07/12 11:38:25;;;;;;;3.72;2.60;;;25.20;99.90;;;;;;5085816;28;20039;-64
2023/07/12 11:40:53;;;;;;;10.32;3.45;;;24.60;99.90;;;;;;5110670;28;20031;-65
2023/07/12 11:43:29;;;;;;;8.70;2.67;;;24.40;99.90;;;;;;5080686;28;20475;-65
2023/07/12 11:45:56;;;;;;;6.95;2.92;;;24.70;99.90;;;;;;5078698;28;21491;-65
2023/07/12 11:48:24;;;;;;;6.53;3.10;;;24.60;99.90;;;;;;5079665;28;20039;-65
2023/07/12 11:50:52;;;;;;;5.93;2.70;;;24.90;99.90;;;;;;5074838;28;20121;-66
2023/07/12 11:53:19;;;;;;;5.00;2.47;;;25.00;99.90;;;;;;5081982;28;20036;-64
2023/07/12 11:55:47;;;;;;;4.85;2.30;;;24.60;99.90;;;;;;5086895;28;20551;-65
2023/07/12 11:58:18;;;;;;;5.28;2.22;;;24.30;99.90;;;;;;5095206;28;20111;-68
2023/07/12 12:00:44;;;;;;;4.72;1.88;;;24.40;99.90;;;;;;5083293;28;20016;-65
2023/07/12 12:03:12;;;;;;;6.50;2.13;;;24.30;99.90;;;;;;5098405;28;20107;-65
2023/07/12 12:05:38;;;;;;;6.03;2.20;;;24.30;99.90;;;;;;5086123;28;20051;-65
2023/07/12 12:08:05;;;;;;;5.47;2.28;;;23.90;99.90;;;;;;5105575;28;20032;-65
2023/07/12 12:10:36;;;;;;;5.68;2.00;;;23.80;99.90;;;;;;5092349;28;20047;-66
2023/07/12 12:13:15;;;;;;;5.50;2.30;;;24.20;99.90;;;;;;5090806;28;20504;-64
2023/07/12 12:15:46;;;;;;;4.03;2.38;;;24.70;99.90;;;;;;5090434;28;20040;-65
2023/07/12 12:18:15;;;;;;;4.82;2.08;;;24.60;99.90;;;;;;5081571;28;20035;-66
2023/07/12 12:21:00;;;;;;;6.45;2.25;;;24.80;99.90;;;;;;5094291;28;20058;-65
2023/07/12 12:23:37;;;;;;;5.32;2.03;;;24.50;99.90;;;;;;5095167;28;20055;-66
2023/07/12 12:26:14;;;;;;;5.70;1.80;;;25.10;99.90;;;;;;5079892;28;20073;-66
2023/07/12 12:28:41;;;;;;;3.75;1.80;;;25.30;99.90;;;;;;5083457;28;20020;-65
2023/07/12 12:31:17;;;;;;;4.50;1.90;;;25.20;99.90;;;;;;5105046;28;20489;-67
2023/07/12 12:33:49;;;;;;;7.03;2.20;;;24.90;99.90;;;;;;5083505;28;20032;-64
2023/07/12 12:36:25;;;;;;;5.78;2.20;;;25.10;99.90;;;;;;5078262;28;20504;-65
2023/07/12 12:38:58;;;;;;;7.05;2.03;;;25.30;99.90;;;;;;5088704;28;20466;-65
2023/07/12 12:41:24;;;;;;;7.53;2.00;;;25.20;99.90;;;;;;5087362;28;20073;-66
2023/07/12 12:44:05;;;;;;;6.25;2.20;;;25.80;99.90;;;;;;5089467;28;20444;-64
2023/07/12 12:46:31;;;;;;;7.57;2.08;;;25.60;99.90;;;;;;5068443;28;20029;-65
2023/07/12 12:48:56;;;;;;;5.40;1.83;;;24.90;99.90;;;;;;5068115;28;20047;-66
2023/07/12 12:51:23;;;;;;;7.30;2.22;;;25.30;99.90;;;;;;5068396;28;20033;-65
2023/07/12 12:53:49;;;;;;;6.20;2.13;;;25.10;99.90;;;;;;5064251;28;20390;-65
2023/07/12 12:56:15;;;;;;;4.30;1.65;;;24.70;99.90;;;;;;5064943;28;20025;-65
2023/07/12 12:58:42;;;;;;;4.03;2.08;;;24.30;99.90;;;;;;5069001;28;20093;-65
2023/07/12 13:01:10;;;;;;;5.70;1.70;;;24.90;99.90;;;;;;5064405;28;20025;-66
2023/07/12 13:03:36;;;;;;;6.03;2.00;;;24.90;99.90;;;;;;5072620;28;20032;-65
2023/07/12 13:06:02;;;;;;;4.65;2.00;;;25.10;99.90;;;;;;5071398;28;20097;-65
2023/07/12 13:08:28;;;;;;;6.40;1.83;;;24.50;99.90;;;;;;5081980;28;20142;-64
2023/07/12 13:10:54;;;;;;;7.10;2.33;;;24.50;99.90;;;;;;5068422;28;20017;-65
2023/07/12 13:13:20;;;;;;;3.83;1.73;;;24.90;99.90;;;;;;5072447;28;20020;-65